0G0 weather

North Buffalo Suburban Airport
Lockport, New York, United States

Public forecast

Using degrees Fahrenheit for public forecast. Weather courtesy of forecast.io.

METAR (pilot weather report)

Closest report is Buffalo Niagara International Airport, 9.9 nm (18.2 km) S. Retrieved 2019/09/22 22:54 UTC (59 minutes ago):

KBUF 222254Z 21008KT 10SM SCT170 BKN230 24/16 A2993 RMK AO2 SLP132 T02440161

TAF (pilot weather forecast)

Closest forecast is Buffalo Niagara International Airport, 9.9 nm (18.2 km) S. Retrieved 2019/09/22 18:36 UTC (5 hours ago):

TAF KBUF 221733Z 2218/2318 23015G25KT P6SM SCT120 SCT250 FM222200 22012KT P6SM SCT250 FM230800 22012G22KT P6SM BKN100 FM231200 23015G25KT 6SM -SHRA OVC050 FM231500 24017G27KT P6SM VCSH BKN025